sensor_id;sensor_type;location;lat;lon;timestamp;P1;durP1;ratioP1;P2;durP2;ratioP2
553;SDS011;59;48.778;9.156;2023-09-12T00:02:13;15.90;;;10.70;;
553;SDS011;59;48.778;9.156;2023-09-12T00:04:39;13.00;;;10.63;;
553;SDS011;59;48.778;9.156;2023-09-12T00:07:04;16.13;;;11.53;;
553;SDS011;59;48.778;9.156;2023-09-12T00:09:30;14.00;;;11.40;;
553;SDS011;59;48.778;9.156;2023-09-12T00:11:56;14.83;;;10.57;;
553;SDS011;59;48.778;9.156;2023-09-12T00:14:21;15.60;;;10.70;;
553;SDS011;59;48.778;9.156;2023-09-12T00:16:47;15.90;;;11.00;;
553;SDS011;59;48.778;9.156;2023-09-12T00:19:13;16.87;;;11.40;;
553;SDS011;59;48.778;9.156;2023-09-12T00:21:39;16.43;;;11.40;;
553;SDS011;59;48.778;9.156;2023-09-12T00:24:06;13.63;;;11.20;;
553;SDS011;59;48.778;9.156;2023-09-12T00:26:31;14.23;;;11.00;;
553;SDS011;59;48.778;9.156;2023-09-12T00:28:58;15.00;;;11.27;;
553;SDS011;59;48.778;9.156;2023-09-12T00:31:23;18.03;;;10.73;;
553;SDS011;59;48.778;9.156;2023-09-12T00:33:49;13.30;;;10.33;;
553;SDS011;59;48.778;9.156;2023-09-12T00:36:15;18.83;;;11.00;;
553;SDS011;59;48.778;9.156;2023-09-12T00:38:40;18.57;;;12.23;;
553;SDS011;59;48.778;9.156;2023-09-12T00:41:06;17.90;;;11.10;;
553;SDS011;59;48.778;9.156;2023-09-12T00:43:32;15.70;;;11.53;;
553;SDS011;59;48.778;9.156;2023-09-12T00:45:57;15.00;;;11.53;;
553;SDS011;59;48.778;9.156;2023-09-12T00:48:23;15.03;;;11.17;;
553;SDS011;59;48.778;9.156;2023-09-12T00:50:49;16.90;;;11.17;;
553;SDS011;59;48.778;9.156;2023-09-12T00:53:15;16.40;;;11.87;;
553;SDS011;59;48.778;9.156;2023-09-12T00:55:42;16.37;;;10.63;;
553;SDS011;59;48.778;9.156;2023-09-12T00:58:11;14.80;;;11.20;;
553;SDS011;59;48.778;9.156;2023-09-12T01:00:36;15.30;;;10.90;;
553;SDS011;59;48.778;9.156;2023-09-12T01:03:02;15.17;;;10.37;;
553;SDS011;59;48.778;9.156;2023-09-12T01:05:28;16.40;;;10.43;;
553;SDS011;59;48.778;9.156;2023-09-12T01:07:54;13.03;;;10.60;;
553;SDS011;59;48.778;9.156;2023-09-12T01:10:20;15.70;;;11.93;;
553;SDS011;59;48.778;9.156;2023-09-12T01:12:46;16.10;;;11.40;;
553;SDS011;59;48.778;9.156;2023-09-12T01:15:11;14.07;;;11.03;;
553;SDS011;59;48.778;9.156;2023-09-12T01:17:40;15.27;;;11.57;;
553;SDS011;59;48.778;9.156;2023-09-12T01:20:07;13.13;;;10.80;;
553;SDS011;59;48.778;9.156;2023-09-12T01:26:05;16.57;;;11.07;;
553;SDS011;59;48.778;9.156;2023-09-12T01:28:45;14.63;;;10.77;;
553;SDS011;59;48.778;9.156;2023-09-12T01:31:11;15.00;;;10.97;;
553;SDS011;59;48.778;9.156;2023-09-12T01:33:37;14.67;;;10.73;;
553;SDS011;59;48.778;9.156;2023-09-12T01:36:04;14.10;;;11.13;;
553;SDS011;59;48.778;9.156;2023-09-12T01:38:30;15.27;;;10.67;;
553;SDS011;59;48.778;9.156;2023-09-12T01:40:55;16.10;;;11.80;;
553;SDS011;59;48.778;9.156;2023-09-12T01:43:22;16.90;;;10.80;;
553;SDS011;59;48.778;9.156;2023-09-12T01:45:53;17.10;;;11.00;;
553;SDS011;59;48.778;9.156;2023-09-12T01:48:21;16.03;;;11.47;;
553;SDS011;59;48.778;9.156;2023-09-12T01:50:48;12.73;;;10.70;;
553;SDS011;59;48.778;9.156;2023-09-12T01:53:15;16.93;;;11.30;;
553;SDS011;59;48.778;9.156;2023-09-12T01:55:41;16.07;;;11.70;;
553;SDS011;59;48.778;9.156;2023-09-12T01:58:09;17.97;;;11.73;;
553;SDS011;59;48.778;9.156;2023-09-12T02:00:36;13.37;;;11.07;;
553;SDS011;59;48.778;9.156;2023-09-12T02:03:03;18.00;;;10.83;;
553;SDS011;59;48.778;9.156;2023-09-12T02:05:28;16.60;;;11.17;;
553;SDS011;59;48.778;9.156;2023-09-12T02:07:54;13.13;;;10.93;;
553;SDS011;59;48.778;9.156;2023-09-12T02:10:20;29.40;;;11.87;;
553;SDS011;59;48.778;9.156;2023-09-12T02:12:46;13.77;;;10.80;;
553;SDS011;59;48.778;9.156;2023-09-12T02:15:11;14.77;;;10.80;;
553;SDS011;59;48.778;9.156;2023-09-12T02:17:37;15.13;;;11.07;;
553;SDS011;59;48.778;9.156;2023-09-12T02:20:04;15.10;;;11.50;;
553;SDS011;59;48.778;9.156;2023-09-12T02:22:33;16.90;;;11.50;;
553;SDS011;59;48.778;9.156;2023-09-12T02:24:59;14.00;;;10.80;;
553;SDS011;59;48.778;9.156;2023-09-12T02:27:25;19.23;;;11.30;;
553;SDS011;59;48.778;9.156;2023-09-12T02:29:50;15.30;;;11.70;;
553;SDS011;59;48.778;9.156;2023-09-12T02:32:16;15.97;;;11.57;;
553;SDS011;59;48.778;9.156;2023-09-12T02:34:42;14.90;;;11.30;;
553;SDS011;59;48.778;9.156;2023-09-12T02:37:07;14.03;;;11.17;;
553;SDS011;59;48.778;9.156;2023-09-12T02:39:33;15.60;;;11.37;;
553;SDS011;59;48.778;9.156;2023-09-12T02:41:59;15.60;;;10.77;;
553;SDS011;59;48.778;9.156;2023-09-12T02:44:24;15.50;;;11.30;;
553;SDS011;59;48.778;9.156;2023-09-12T02:46:50;13.80;;;10.73;;
553;SDS011;59;48.778;9.156;2023-09-12T02:49:16;14.97;;;10.60;;
553;SDS011;59;48.778;9.156;2023-09-12T02:51:42;14.87;;;11.37;;
553;SDS011;59;48.778;9.156;2023-09-12T02:54:07;16.73;;;11.40;;
553;SDS011;59;48.778;9.156;2023-09-12T02:56:33;14.03;;;10.93;;
553;SDS011;59;48.778;9.156;2023-09-12T02:58:59;14.20;;;11.47;;
553;SDS011;59;48.778;9.156;2023-09-12T03:01:25;15.90;;;11.20;;
553;SDS011;59;48.778;9.156;2023-09-12T03:03:52;15.37;;;11.30;;
553;SDS011;59;48.778;9.156;2023-09-12T03:06:18;14.43;;;11.07;;
553;SDS011;59;48.778;9.156;2023-09-12T03:08:44;16.60;;;10.90;;
553;SDS011;59;48.778;9.156;2023-09-12T03:11:10;14.80;;;9.90;;
553;SDS011;59;48.778;9.156;2023-09-12T03:13:36;19.27;;;11.23;;
553;SDS011;59;48.778;9.156;2023-09-12T03:16:02;16.43;;;11.30;;
553;SDS011;59;48.778;9.156;2023-09-12T03:18:28;14.53;;;10.53;;
553;SDS011;59;48.778;9.156;2023-09-12T03:20:54;17.20;;;11.13;;
553;SDS011;59;48.778;9.156;2023-09-12T03:23:20;14.90;;;11.30;;
553;SDS011;59;48.778;9.156;2023-09-12T03:25:46;15.83;;;11.40;;
553;SDS011;59;48.778;9.156;2023-09-12T03:28:12;15.67;;;11.27;;
553;SDS011;59;48.778;9.156;2023-09-12T03:30:38;25.20;;;11.73;;
553;SDS011;59;48.778;9.156;2023-09-12T03:33:04;15.43;;;11.30;;
553;SDS011;59;48.778;9.156;2023-09-12T03:35:33;21.10;;;12.40;;
553;SDS011;59;48.778;9.156;2023-09-12T03:37:59;13.83;;;11.10;;
553;SDS011;59;48.778;9.156;2023-09-12T03:40:27;18.80;;;12.07;;
553;SDS011;59;48.778;9.156;2023-09-12T03:42:54;13.30;;;11.13;;
553;SDS011;59;48.778;9.156;2023-09-12T03:45:19;16.60;;;11.80;;
553;SDS011;59;48.778;9.156;2023-09-12T03:47:45;18.33;;;11.10;;
553;SDS011;59;48.778;9.156;2023-09-12T03:50:12;15.17;;;11.10;;
553;SDS011;59;48.778;9.156;2023-09-12T03:52:38;17.27;;;11.80;;
553;SDS011;59;48.778;9.156;2023-09-12T03:55:04;16.23;;;11.40;;
553;SDS011;59;48.778;9.156;2023-09-12T03:57:32;20.60;;;11.07;;
553;SDS011;59;48.778;9.156;2023-09-12T03:59:58;14.57;;;10.17;;
553;SDS011;59;48.778;9.156;2023-09-12T04:02:23;14.90;;;10.70;;
553;SDS011;59;48.778;9.156;2023-09-12T04:04:49;15.07;;;10.73;;
553;SDS011;59;48.778;9.156;2023-09-12T04:07:16;14.33;;;11.00;;
553;SDS011;59;48.778;9.156;2023-09-12T04:09:42;15.33;;;11.30;;
553;SDS011;59;48.778;9.156;2023-09-12T04:12:08;14.30;;;11.03;;
553;SDS011;59;48.778;9.156;2023-09-12T04:14:34;17.00;;;11.03;;
553;SDS011;59;48.778;9.156;2023-09-12T04:17:00;19.83;;;12.50;;
553;SDS011;59;48.778;9.156;2023-09-12T04:19:26;13.93;;;11.20;;
553;SDS011;59;48.778;9.156;2023-09-12T04:21:51;15.63;;;12.03;;
553;SDS011;59;48.778;9.156;2023-09-12T04:24:18;15.97;;;11.40;;
553;SDS011;59;48.778;9.156;2023-09-12T04:26:46;16.83;;;11.50;;
553;SDS011;59;48.778;9.156;2023-09-12T04:29:11;16.53;;;10.27;;
553;SDS011;59;48.778;9.156;2023-09-12T04:31:37;15.57;;;11.00;;
553;SDS011;59;48.778;9.156;2023-09-12T04:34:03;20.40;;;15.70;;
553;SDS011;59;48.778;9.156;2023-09-12T04:36:28;41.03;;;27.13;;
553;SDS011;59;48.778;9.156;2023-09-12T04:38:54;26.13;;;17.50;;
553;SDS011;59;48.778;9.156;2023-09-12T04:41:20;17.27;;;13.47;;
553;SDS011;59;48.778;9.156;2023-09-12T04:43:45;16.73;;;12.50;;
553;SDS011;59;48.778;9.156;2023-09-12T04:46:11;15.43;;;11.60;;
553;SDS011;59;48.778;9.156;2023-09-12T04:48:38;15.43;;;10.83;;
553;SDS011;59;48.778;9.156;2023-09-12T04:51:04;13.23;;;10.30;;
553;SDS011;59;48.778;9.156;2023-09-12T04:53:30;14.37;;;11.10;;
553;SDS011;59;48.778;9.156;2023-09-12T04:56:00;18.70;;;11.60;;
553;SDS011;59;48.778;9.156;2023-09-12T04:58:29;12.70;;;10.33;;
553;SDS011;59;48.778;9.156;2023-09-12T05:00:55;14.90;;;11.10;;
553;SDS011;59;48.778;9.156;2023-09-12T05:03:21;25.60;;;20.40;;
553;SDS011;59;48.778;9.156;2023-09-12T05:05:49;21.13;;;15.60;;
553;SDS011;59;48.778;9.156;2023-09-12T05:08:15;15.93;;;12.83;;
553;SDS011;59;48.778;9.156;2023-09-12T05:10:46;16.83;;;13.17;;
553;SDS011;59;48.778;9.156;2023-09-12T05:13:11;16.73;;;12.27;;
553;SDS011;59;48.778;9.156;2023-09-12T05:15:37;15.60;;;12.00;;
553;SDS011;59;48.778;9.156;2023-09-12T05:18:05;13.93;;;11.07;;
553;SDS011;59;48.778;9.156;2023-09-12T05:20:31;16.40;;;11.70;;
553;SDS011;59;48.778;9.156;2023-09-12T05:22:57;17.40;;;11.40;;
553;SDS011;59;48.778;9.156;2023-09-12T05:25:23;15.57;;;11.10;;
553;SDS011;59;48.778;9.156;2023-09-12T05:27:49;18.60;;;12.50;;
553;SDS011;59;48.778;9.156;2023-09-12T05:30:15;16.50;;;11.60;;
553;SDS011;59;48.778;9.156;2023-09-12T05:32:41;16.70;;;12.70;;
553;SDS011;59;48.778;9.156;2023-09-12T05:35:07;15.63;;;11.77;;
553;SDS011;59;48.778;9.156;2023-09-12T05:37:32;17.73;;;12.67;;
553;SDS011;59;48.778;9.156;2023-09-12T05:39:58;14.10;;;11.30;;
553;SDS011;59;48.778;9.156;2023-09-12T05:42:24;16.27;;;11.40;;
553;SDS011;59;48.778;9.156;2023-09-12T05:44:50;16.47;;;11.80;;
553;SDS011;59;48.778;9.156;2023-09-12T05:47:19;17.43;;;12.40;;
553;SDS011;59;48.778;9.156;2023-09-12T05:49:45;15.47;;;11.77;;
553;SDS011;59;48.778;9.156;2023-09-12T05:52:11;17.53;;;11.20;;
553;SDS011;59;48.778;9.156;2023-09-12T05:54:37;15.77;;;11.30;;
553;SDS011;59;48.778;9.156;2023-09-12T05:57:03;15.70;;;11.33;;
553;SDS011;59;48.778;9.156;2023-09-12T05:59:30;16.50;;;11.87;;
553;SDS011;59;48.778;9.156;2023-09-12T06:01:55;14.10;;;11.67;;
553;SDS011;59;48.778;9.156;2023-09-12T06:04:21;17.00;;;12.77;;
553;SDS011;59;48.778;9.156;2023-09-12T06:06:47;14.23;;;11.30;;
553;SDS011;59;48.778;9.156;2023-09-12T06:09:13;16.10;;;12.17;;
553;SDS011;59;48.778;9.156;2023-09-12T06:11:38;14.40;;;11.63;;
553;SDS011;59;48.778;9.156;2023-09-12T06:14:04;19.57;;;12.07;;
553;SDS011;59;48.778;9.156;2023-09-12T06:16:30;19.60;;;12.80;;
553;SDS011;59;48.778;9.156;2023-09-12T06:18:55;14.73;;;11.63;;
553;SDS011;59;48.778;9.156;2023-09-12T06:21:21;18.80;;;12.60;;
553;SDS011;59;48.778;9.156;2023-09-12T06:23:47;15.10;;;11.47;;
553;SDS011;59;48.778;9.156;2023-09-12T06:26:13;15.60;;;11.30;;
553;SDS011;59;48.778;9.156;2023-09-12T06:28:40;15.40;;;11.80;;
553;SDS011;59;48.778;9.156;2023-09-12T06:31:08;14.63;;;11.13;;
553;SDS011;59;48.778;9.156;2023-09-12T06:33:37;19.30;;;13.03;;
553;SDS011;59;48.778;9.156;2023-09-12T06:36:03;16.30;;;11.33;;
553;SDS011;59;48.778;9.156;2023-09-12T06:38:29;14.33;;;11.13;;
553;SDS011;59;48.778;9.156;2023-09-12T06:40:55;21.83;;;12.40;;
553;SDS011;59;48.778;9.156;2023-09-12T06:43:21;15.63;;;11.97;;
553;SDS011;59;48.778;9.156;2023-09-12T06:45:47;21.17;;;12.80;;
553;SDS011;59;48.778;9.156;2023-09-12T06:48:13;13.40;;;11.13;;
553;SDS011;59;48.778;9.156;2023-09-12T06:50:38;17.90;;;12.00;;
553;SDS011;59;48.778;9.156;2023-09-12T06:53:04;20.53;;;12.03;;
553;SDS011;59;48.778;9.156;2023-09-12T06:55:35;15.70;;;11.40;;
553;SDS011;59;48.778;9.156;2023-09-12T06:58:00;13.90;;;11.13;;
553;SDS011;59;48.778;9.156;2023-09-12T07:00:26;14.37;;;10.83;;
553;SDS011;59;48.778;9.156;2023-09-12T07:02:52;17.57;;;11.77;;
553;SDS011;59;48.778;9.156;2023-09-12T07:05:17;15.50;;;11.33;;
553;SDS011;59;48.778;9.156;2023-09-12T07:07:43;18.13;;;12.30;;
553;SDS011;59;48.778;9.156;2023-09-12T07:10:09;20.27;;;12.60;;
553;SDS011;59;48.778;9.156;2023-09-12T07:12:34;16.83;;;12.00;;
553;SDS011;59;48.778;9.156;2023-09-12T07:15:00;19.83;;;12.70;;
553;SDS011;59;48.778;9.156;2023-09-12T07:17:27;16.30;;;11.90;;
553;SDS011;59;48.778;9.156;2023-09-12T07:19:53;13.03;;;10.97;;
553;SDS011;59;48.778;9.156;2023-09-12T07:22:19;18.20;;;11.97;;
553;SDS011;59;48.778;9.156;2023-09-12T07:24:44;16.70;;;12.07;;
553;SDS011;59;48.778;9.156;2023-09-12T07:27:10;16.63;;;11.40;;
553;SDS011;59;48.778;9.156;2023-09-12T07:29:36;15.67;;;11.33;;
553;SDS011;59;48.778;9.156;2023-09-12T07:32:02;19.10;;;12.83;;
553;SDS011;59;48.778;9.156;2023-09-12T07:34:28;17.10;;;10.97;;
553;SDS011;59;48.778;9.156;2023-09-12T07:36:54;16.80;;;11.70;;
553;SDS011;59;48.778;9.156;2023-09-12T07:39:19;18.27;;;11.50;;
553;SDS011;59;48.778;9.156;2023-09-12T07:41:45;19.20;;;12.53;;
553;SDS011;59;48.778;9.156;2023-09-12T07:44:11;17.27;;;12.83;;
553;SDS011;59;48.778;9.156;2023-09-12T07:46:40;16.70;;;11.50;;
553;SDS011;59;48.778;9.156;2023-09-12T07:49:06;18.13;;;11.80;;
553;SDS011;59;48.778;9.156;2023-09-12T07:51:34;19.27;;;12.60;;
553;SDS011;59;48.778;9.156;2023-09-12T07:54:00;15.40;;;11.90;;
553;SDS011;59;48.778;9.156;2023-09-12T07:56:26;19.53;;;12.43;;
553;SDS011;59;48.778;9.156;2023-09-12T07:58:51;17.00;;;11.63;;
553;SDS011;59;48.778;9.156;2023-09-12T08:01:17;17.77;;;12.80;;
553;SDS011;59;48.778;9.156;2023-09-12T08:03:43;18.53;;;11.87;;
553;SDS011;59;48.778;9.156;2023-09-12T08:06:09;25.30;;;12.80;;
553;SDS011;59;48.778;9.156;2023-09-12T08:08:34;15.83;;;11.07;;
553;SDS011;59;48.778;9.156;2023-09-12T08:11:00;15.97;;;12.03;;
553;SDS011;59;48.778;9.156;2023-09-12T08:13:27;15.87;;;12.50;;
553;SDS011;59;48.778;9.156;2023-09-12T08:15:54;16.70;;;12.43;;
553;SDS011;59;48.778;9.156;2023-09-12T08:18:20;18.53;;;13.03;;
553;SDS011;59;48.778;9.156;2023-09-12T08:20:46;18.23;;;11.80;;
553;SDS011;59;48.778;9.156;2023-09-12T08:23:11;15.13;;;12.20;;
553;SDS011;59;48.778;9.156;2023-09-12T08:25:37;14.77;;;11.43;;
553;SDS011;59;48.778;9.156;2023-09-12T08:28:04;15.40;;;12.00;;
553;SDS011;59;48.778;9.156;2023-09-12T08:30:30;16.17;;;11.60;;
553;SDS011;59;48.778;9.156;2023-09-12T08:32:56;13.73;;;11.63;;
553;SDS011;59;48.778;9.156;2023-09-12T08:35:22;14.13;;;11.23;;
553;SDS011;59;48.778;9.156;2023-09-12T08:37:47;12.87;;;10.80;;
553;SDS011;59;48.778;9.156;2023-09-12T08:40:13;11.80;;;9.43;;
553;SDS011;59;48.778;9.156;2023-09-12T08:42:41;13.93;;;10.63;;
553;SDS011;59;48.778;9.156;2023-09-12T08:45:10;12.27;;;10.53;;
553;SDS011;59;48.778;9.156;2023-09-12T08:47:41;17.70;;;11.13;;
553;SDS011;59;48.778;9.156;2023-09-12T08:50:12;13.90;;;11.33;;
553;SDS011;59;48.778;9.156;2023-09-12T08:52:39;21.03;;;11.47;;
553;SDS011;59;48.778;9.156;2023-09-12T08:55:06;16.23;;;11.10;;
553;SDS011;59;48.778;9.156;2023-09-12T08:57:32;19.10;;;11.10;;
553;SDS011;59;48.778;9.156;2023-09-12T09:00:00;14.40;;;11.67;;
553;SDS011;59;48.778;9.156;2023-09-12T09:02:31;12.23;;;10.40;;
553;SDS011;59;48.778;9.156;2023-09-12T09:05:03;12.87;;;9.90;;
553;SDS011;59;48.778;9.156;2023-09-12T09:07:37;13.83;;;11.03;;
553;SDS011;59;48.778;9.156;2023-09-12T09:10:05;20.00;;;12.30;;
553;SDS011;59;48.778;9.156;2023-09-12T09:12:32;15.20;;;11.90;;
553;SDS011;59;48.778;9.156;2023-09-12T09:14:59;14.87;;;11.00;;
553;SDS011;59;48.778;9.156;2023-09-12T09:17:54;17.83;;;11.40;;
553;SDS011;59;48.778;9.156;2023-09-12T09:22:59;18.73;;;12.43;;
553;SDS011;59;48.778;9.156;2023-09-12T09:25:34;15.60;;;11.23;;
553;SDS011;59;48.778;9.156;2023-09-12T09:31:21;13.73;;;11.50;;
553;SDS011;59;48.778;9.156;2023-09-12T09:33:47;14.60;;;11.73;;
553;SDS011;59;48.778;9.156;2023-09-12T09:36:16;12.50;;;11.20;;
553;SDS011;59;48.778;9.156;2023-09-12T09:38:42;16.10;;;11.90;;
553;SDS011;59;48.778;9.156;2023-09-12T09:41:09;17.07;;;11.33;;
553;SDS011;59;48.778;9.156;2023-09-12T09:43:35;15.27;;;12.10;;
553;SDS011;59;48.778;9.156;2023-09-12T09:46:00;14.50;;;11.50;;
553;SDS011;59;48.778;9.156;2023-09-12T09:48:28;16.47;;;11.13;;
553;SDS011;59;48.778;9.156;2023-09-12T09:51:02;14.37;;;11.73;;
553;SDS011;59;48.778;9.156;2023-09-12T09:53:32;16.87;;;11.83;;
553;SDS011;59;48.778;9.156;2023-09-12T09:56:16;16.93;;;11.80;;
553;SDS011;59;48.778;9.156;2023-09-12T10:01:21;14.60;;;11.53;;
553;SDS011;59;48.778;9.156;2023-09-12T10:03:50;14.23;;;11.33;;
553;SDS011;59;48.778;9.156;2023-09-12T10:06:16;17.70;;;11.80;;
553;SDS011;59;48.778;9.156;2023-09-12T10:08:44;12.10;;;10.73;;
553;SDS011;59;48.778;9.156;2023-09-12T10:11:14;15.70;;;11.30;;
553;SDS011;59;48.778;9.156;2023-09-12T10:13:43;16.80;;;12.10;;
553;SDS011;59;48.778;9.156;2023-09-12T10:16:29;15.70;;;10.77;;
553;SDS011;59;48.778;9.156;2023-09-12T10:22:02;15.37;;;12.03;;
553;SDS011;59;48.778;9.156;2023-09-12T10:24:32;15.47;;;10.77;;
553;SDS011;59;48.778;9.156;2023-09-12T10:26:58;12.90;;;11.03;;
553;SDS011;59;48.778;9.156;2023-09-12T10:29:25;12.70;;;11.30;;
553;SDS011;59;48.778;9.156;2023-09-12T10:31:51;14.80;;;10.40;;
553;SDS011;59;48.778;9.156;2023-09-12T10:34:17;13.03;;;10.47;;
553;SDS011;59;48.778;9.156;2023-09-12T10:36:44;14.43;;;10.70;;
553;SDS011;59;48.778;9.156;2023-09-12T10:39:11;15.23;;;10.80;;
553;SDS011;59;48.778;9.156;2023-09-12T10:41:40;11.37;;;10.60;;
553;SDS011;59;48.778;9.156;2023-09-12T10:44:07;12.63;;;10.33;;
553;SDS011;59;48.778;9.156;2023-09-12T10:46:44;14.70;;;11.00;;
553;SDS011;59;48.778;9.156;2023-09-12T10:49:11;16.77;;;10.73;;
553;SDS011;59;48.778;9.156;2023-09-12T10:51:38;14.17;;;10.63;;
553;SDS011;59;48.778;9.156;2023-09-12T10:54:08;14.40;;;10.83;;
553;SDS011;59;48.778;9.156;2023-09-12T10:56:37;14.90;;;11.10;;
553;SDS011;59;48.778;9.156;2023-09-12T11:01:32;13.00;;;11.03;;
553;SDS011;59;48.778;9.156;2023-09-12T11:06:52;16.43;;;11.03;;
553;SDS011;59;48.778;9.156;2023-09-12T11:09:20;13.87;;;10.10;;
553;SDS011;59;48.778;9.156;2023-09-12T11:11:47;13.90;;;10.97;;
553;SDS011;59;48.778;9.156;2023-09-12T11:14:35;14.03;;;10.37;;
553;SDS011;59;48.778;9.156;2023-09-12T11:22:26;12.43;;;9.53;;
553;SDS011;59;48.778;9.156;2023-09-12T11:24:53;11.53;;;8.77;;
553;SDS011;59;48.778;9.156;2023-09-12T11:27:21;12.93;;;9.47;;
553;SDS011;59;48.778;9.156;2023-09-12T11:29:47;11.07;;;9.07;;
553;SDS011;59;48.778;9.156;2023-09-12T11:32:25;13.73;;;9.30;;
553;SDS011;59;48.778;9.156;2023-09-12T11:34:52;12.33;;;8.90;;
553;SDS011;59;48.778;9.156;2023-09-12T11:37:25;11.40;;;9.10;;
553;SDS011;59;48.778;9.156;2023-09-12T11:39:53;9.60;;;8.90;;
553;SDS011;59;48.778;9.156;2023-09-12T11:42:19;11.10;;;9.77;;
553;SDS011;59;48.778;9.156;2023-09-12T11:44:48;12.53;;;9.30;;
553;SDS011;59;48.778;9.156;2023-09-12T11:47:15;12.10;;;9.27;;
553;SDS011;59;48.778;9.156;2023-09-12T11:49:41;13.20;;;9.83;;
553;SDS011;59;48.778;9.156;2023-09-12T11:52:10;11.90;;;9.87;;
553;SDS011;59;48.778;9.156;2023-09-12T11:54:45;13.40;;;10.17;;
553;SDS011;59;48.778;9.156;2023-09-12T11:57:14;14.10;;;10.20;;
553;SDS011;59;48.778;9.156;2023-09-12T11:59:43;10.93;;;9.77;;
553;SDS011;59;48.778;9.156;2023-09-12T12:02:32;12.87;;;10.60;;
553;SDS011;59;48.778;9.156;2023-09-12T12:04:58;16.70;;;10.57;;
553;SDS011;59;48.778;9.156;2023-09-12T12:07:24;12.07;;;10.33;;
553;SDS011;59;48.778;9.156;2023-09-12T12:09:50;12.43;;;10.00;;
553;SDS011;59;48.778;9.156;2023-09-12T12:14:45;15.37;;;10.40;;
553;SDS011;59;48.778;9.156;2023-09-12T12:17:11;13.00;;;10.73;;
553;SDS011;59;48.778;9.156;2023-09-12T12:19:37;12.73;;;10.40;;
553;SDS011;59;48.778;9.156;2023-09-12T12:22:04;14.27;;;10.80;;
553;SDS011;59;48.778;9.156;2023-09-12T12:24:38;13.80;;;9.40;;
553;SDS011;59;48.778;9.156;2023-09-12T12:27:09;14.07;;;10.80;;
553;SDS011;59;48.778;9.156;2023-09-12T12:29:36;13.23;;;10.77;;
553;SDS011;59;48.778;9.156;2023-09-12T12:32:04;12.73;;;9.37;;
553;SDS011;59;48.778;9.156;2023-09-12T12:34:33;12.10;;;9.77;;
553;SDS011;59;48.778;9.156;2023-09-12T12:36:59;14.80;;;10.80;;
553;SDS011;59;48.778;9.156;2023-09-12T12:39:25;13.87;;;10.63;;
553;SDS011;59;48.778;9.156;2023-09-12T12:41:54;13.40;;;9.97;;
553;SDS011;59;48.778;9.156;2023-09-12T12:44:20;15.70;;;10.10;;
553;SDS011;59;48.778;9.156;2023-09-12T12:46:50;12.13;;;9.50;;
553;SDS011;59;48.778;9.156;2023-09-12T12:49:17;12.27;;;9.07;;
553;SDS011;59;48.778;9.156;2023-09-12T12:51:52;10.00;;;8.77;;
553;SDS011;59;48.778;9.156;2023-09-12T12:54:21;13.23;;;9.00;;
553;SDS011;59;48.778;9.156;2023-09-12T12:56:48;13.47;;;10.10;;
553;SDS011;59;48.778;9.156;2023-09-12T12:59:13;14.87;;;10.13;;
553;SDS011;59;48.778;9.156;2023-09-12T13:01:40;12.00;;;9.40;;
553;SDS011;59;48.778;9.156;2023-09-12T13:04:07;13.07;;;9.80;;
553;SDS011;59;48.778;9.156;2023-09-12T13:06:33;14.03;;;9.80;;
553;SDS011;59;48.778;9.156;2023-09-12T13:09:03;13.30;;;9.23;;
553;SDS011;59;48.778;9.156;2023-09-12T13:11:33;10.60;;;9.07;;
553;SDS011;59;48.778;9.156;2023-09-12T13:14:04;11.70;;;8.20;;
553;SDS011;59;48.778;9.156;2023-09-12T13:16:34;13.40;;;8.90;;
553;SDS011;59;48.778;9.156;2023-09-12T13:19:00;9.70;;;7.77;;
553;SDS011;59;48.778;9.156;2023-09-12T13:21:26;11.80;;;8.70;;
553;SDS011;59;48.778;9.156;2023-09-12T13:23:53;12.70;;;8.70;;
553;SDS011;59;48.778;9.156;2023-09-12T13:26:22;13.60;;;8.97;;
553;SDS011;59;48.778;9.156;2023-09-12T13:28:47;18.20;;;8.73;;
553;SDS011;59;48.778;9.156;2023-09-12T13:31:13;11.03;;;8.13;;
553;SDS011;59;48.778;9.156;2023-09-12T13:33:39;10.40;;;8.77;;
553;SDS011;59;48.778;9.156;2023-09-12T13:36:05;13.83;;;8.47;;
553;SDS011;59;48.778;9.156;2023-09-12T13:38:30;10.10;;;8.80;;
553;SDS011;59;48.778;9.156;2023-09-12T13:40:56;16.70;;;8.83;;
553;SDS011;59;48.778;9.156;2023-09-12T13:43:22;13.67;;;9.20;;
553;SDS011;59;48.778;9.156;2023-09-12T13:45:48;14.40;;;8.70;;
553;SDS011;59;48.778;9.156;2023-09-12T13:48:13;12.50;;;8.97;;
553;SDS011;59;48.778;9.156;2023-09-12T13:50:39;10.90;;;8.70;;
553;SDS011;59;48.778;9.156;2023-09-12T13:53:08;15.00;;;8.90;;
553;SDS011;59;48.778;9.156;2023-09-12T13:55:34;10.70;;;8.50;;
553;SDS011;59;48.778;9.156;2023-09-12T13:58:04;13.20;;;9.70;;
553;SDS011;59;48.778;9.156;2023-09-12T14:00:31;14.23;;;9.77;;
553;SDS011;59;48.778;9.156;2023-09-12T14:02:57;13.70;;;8.53;;
553;SDS011;59;48.778;9.156;2023-09-12T14:05:23;14.40;;;9.30;;
553;SDS011;59;48.778;9.156;2023-09-12T14:07:59;11.63;;;9.40;;
553;SDS011;59;48.778;9.156;2023-09-12T14:10:27;11.20;;;9.63;;
553;SDS011;59;48.778;9.156;2023-09-12T14:12:56;15.63;;;9.03;;
553;SDS011;59;48.778;9.156;2023-09-12T14:15:21;14.07;;;9.23;;
553;SDS011;59;48.778;9.156;2023-09-12T14:17:50;12.80;;;9.40;;
553;SDS011;59;48.778;9.156;2023-09-12T14:20:19;10.50;;;9.20;;
553;SDS011;59;48.778;9.156;2023-09-12T14:22:47;12.90;;;8.83;;
553;SDS011;59;48.778;9.156;2023-09-12T14:25:26;10.70;;;8.80;;
553;SDS011;59;48.778;9.156;2023-09-12T14:27:58;12.70;;;9.00;;
553;SDS011;59;48.778;9.156;2023-09-12T14:30:26;12.13;;;9.43;;
553;SDS011;59;48.778;9.156;2023-09-12T14:33:09;14.23;;;9.23;;
553;SDS011;59;48.778;9.156;2023-09-12T14:35:47;13.07;;;8.60;;
553;SDS011;59;48.778;9.156;2023-09-12T14:38:13;12.63;;;9.37;;
553;SDS011;59;48.778;9.156;2023-09-12T14:40:47;14.43;;;10.10;;
553;SDS011;59;48.778;9.156;2023-09-12T14:43:16;13.13;;;9.47;;
553;SDS011;59;48.778;9.156;2023-09-12T14:45:45;13.63;;;9.37;;
553;SDS011;59;48.778;9.156;2023-09-12T14:48:11;13.20;;;9.67;;
553;SDS011;59;48.778;9.156;2023-09-12T14:50:36;12.03;;;9.20;;
553;SDS011;59;48.778;9.156;2023-09-12T14:53:09;10.20;;;8.67;;
553;SDS011;59;48.778;9.156;2023-09-12T14:55:41;9.77;;;8.70;;
553;SDS011;59;48.778;9.156;2023-09-12T14:58:10;9.73;;;8.40;;
553;SDS011;59;48.778;9.156;2023-09-12T15:00:47;9.53;;;8.00;;
553;SDS011;59;48.778;9.156;2023-09-12T15:03:13;9.30;;;8.50;;
553;SDS011;59;48.778;9.156;2023-09-12T15:05:39;11.90;;;8.30;;
553;SDS011;59;48.778;9.156;2023-09-12T15:08:05;8.13;;;7.63;;
553;SDS011;59;48.778;9.156;2023-09-12T15:10:31;9.13;;;7.97;;
553;SDS011;59;48.778;9.156;2023-09-12T15:12:57;11.80;;;8.87;;
553;SDS011;59;48.778;9.156;2023-09-12T15:15:23;12.23;;;8.83;;
553;SDS011;59;48.778;9.156;2023-09-12T15:17:52;20.50;;;15.23;;
553;SDS011;59;48.778;9.156;2023-09-12T15:20:17;18.33;;;15.40;;
553;SDS011;59;48.778;9.156;2023-09-12T15:22:43;17.30;;;12.80;;
553;SDS011;59;48.778;9.156;2023-09-12T15:25:09;12.30;;;10.83;;
553;SDS011;59;48.778;9.156;2023-09-12T15:27:35;13.10;;;9.93;;
553;SDS011;59;48.778;9.156;2023-09-12T15:30:01;11.87;;;9.73;;
553;SDS011;59;48.778;9.156;2023-09-12T15:32:27;12.73;;;9.10;;
553;SDS011;59;48.778;9.156;2023-09-12T15:34:53;13.13;;;9.07;;
553;SDS011;59;48.778;9.156;2023-09-12T15:37:21;17.60;;;11.30;;
553;SDS011;59;48.778;9.156;2023-09-12T15:39:47;18.97;;;16.17;;
553;SDS011;59;48.778;9.156;2023-09-12T15:42:12;22.83;;;18.03;;
553;SDS011;59;48.778;9.156;2023-09-12T15:44:38;17.17;;;13.40;;
553;SDS011;59;48.778;9.156;2023-09-12T15:47:07;14.33;;;10.90;;
553;SDS011;59;48.778;9.156;2023-09-12T15:49:36;13.57;;;10.50;;
553;SDS011;59;48.778;9.156;2023-09-12T15:52:18;12.20;;;9.70;;
553;SDS011;59;48.778;9.156;2023-09-12T15:54:43;12.63;;;9.80;;
553;SDS011;59;48.778;9.156;2023-09-12T15:57:09;10.77;;;8.90;;
553;SDS011;59;48.778;9.156;2023-09-12T15:59:35;10.73;;;9.37;;
553;SDS011;59;48.778;9.156;2023-09-12T16:02:01;15.27;;;9.63;;
553;SDS011;59;48.778;9.156;2023-09-12T16:04:26;9.80;;;8.17;;